createdAt,value
2022-12-26T00:00:59.956Z,57.69
2022-12-26T00:03:27.972Z,58.06
2022-12-26T00:05:57.856Z,57.94
2022-12-26T00:08:25.717Z,58.15
2022-12-26T00:10:53.576Z,57.80
2022-12-26T00:13:40.306Z,57.64
2022-12-26T00:16:10.591Z,58.00
2022-12-26T00:18:39.356Z,57.88
2022-12-26T00:21:10.407Z,57.65
2022-12-26T00:23:39.275Z,57.97
2022-12-26T00:26:09.180Z,57.67
2022-12-26T00:28:37.850Z,57.86
2022-12-26T00:31:06.670Z,57.72
2022-12-26T00:33:35.945Z,57.75
2022-12-26T00:36:05.157Z,57.82
2022-12-26T00:38:35.791Z,57.92
2022-12-26T00:41:04.027Z,58.03
2022-12-26T00:43:32.324Z,58.03
2022-12-26T00:46:00.589Z,57.84
2022-12-26T00:48:28.454Z,57.56
2022-12-26T00:50:56.593Z,57.63
2022-12-26T00:53:25.228Z,57.20
2022-12-26T00:55:54.743Z,57.49
2022-12-26T00:58:22.895Z,57.03
2022-12-26T01:00:51.586Z,57.52
2022-12-26T01:03:20.055Z,57.38
2022-12-26T01:05:50.484Z,57.42
2022-12-26T01:08:23.053Z,57.29
2022-12-26T01:10:54.223Z,56.84
2022-12-26T01:13:22.376Z,56.79
2022-12-26T01:15:51.625Z,57.32
2022-12-26T01:18:19.968Z,57.20
2022-12-26T01:20:48.327Z,56.96
2022-12-26T01:23:16.595Z,56.98
2022-12-26T01:26:18.818Z,56.75
2022-12-26T01:28:33.608Z,57.31
2022-12-26T01:31:05.125Z,57.04
2022-12-26T01:33:33.831Z,56.81
2022-12-26T01:36:01.806Z,57.03
2022-12-26T01:38:29.917Z,56.75
2022-12-26T01:41:11.652Z,56.58
2022-12-26T01:43:59.092Z,57.16
2022-12-26T01:46:35.349Z,57.05
2022-12-26T01:49:15.012Z,56.61
2022-12-26T01:51:51.577Z,56.82
2022-12-26T01:54:39.276Z,56.71
2022-12-26T01:57:17.242Z,56.91
2022-12-26T01:59:48.560Z,57.05
2022-12-26T02:02:17.711Z,56.77
2022-12-26T02:05:07.300Z,57.02
2022-12-26T02:07:37.524Z,56.82
2022-12-26T02:10:08.795Z,57.18
2022-12-26T02:12:38.852Z,57.46
2022-12-26T02:15:13.284Z,57.24
2022-12-26T02:20:24.971Z,57.21
2022-12-26T02:23:41.539Z,57.60
2022-12-26T02:26:40.911Z,57.51
2022-12-26T02:29:34.647Z,57.50
2022-12-26T02:32:13.976Z,57.14
2022-12-26T02:34:55.600Z,57.02
2022-12-26T02:37:37.740Z,56.90
2022-12-26T02:40:21.642Z,57.06
2022-12-26T02:42:59.945Z,57.59
2022-12-26T02:45:51.361Z,57.52
2022-12-26T02:48:32.125Z,57.70
2022-12-26T02:51:25.679Z,57.39
2022-12-26T02:54:25.674Z,57.13
2022-12-26T02:57:15.525Z,57.44
2022-12-26T03:00:09.811Z,57.04
2022-12-26T03:02:58.681Z,57.39
2022-12-26T03:05:49.907Z,57.03
2022-12-26T03:08:42.816Z,57.44
2022-12-26T03:11:28.649Z,57.08
2022-12-26T03:14:06.412Z,57.67
2022-12-26T03:16:52.721Z,57.46
2022-12-26T03:19:23.184Z,57.44
2022-12-26T03:21:52.935Z,57.05
2022-12-26T03:24:22.302Z,57.61
2022-12-26T03:26:54.022Z,57.45
2022-12-26T03:29:42.441Z,57.00
2022-12-26T03:32:13.056Z,57.45
2022-12-26T03:34:44.162Z,57.21
2022-12-26T03:37:48.237Z,57.12
2022-12-26T03:40:43.581Z,57.49
2022-12-26T03:43:38.717Z,57.57
2022-12-26T03:46:35.457Z,57.10
2022-12-26T03:49:28.141Z,57.07
2022-12-26T03:52:19.094Z,57.21
2022-12-26T03:55:13.004Z,57.27
2022-12-26T03:58:05.693Z,57.11
2022-12-26T04:00:53.586Z,57.20
2022-12-26T04:03:43.344Z,57.20
2022-12-26T04:06:37.190Z,57.11
2022-12-26T04:09:39.497Z,57.52
2022-12-26T04:12:33.298Z,57.21
2022-12-26T04:15:24.965Z,57.56
2022-12-26T04:18:15.684Z,57.03
2022-12-26T04:20:48.342Z,57.52
2022-12-26T04:23:40.939Z,57.00
2022-12-26T04:26:29.842Z,57.37
2022-12-26T04:29:16.638Z,57.31
2022-12-26T04:32:08.276Z,56.79
2022-12-26T04:35:01.673Z,56.98
2022-12-26T04:37:47.389Z,57.84
2022-12-26T04:40:38.609Z,56.63
2022-12-26T04:43:48.671Z,56.49
2022-12-26T04:46:17.719Z,56.80
2022-12-26T04:49:11.060Z,57.08
2022-12-26T04:51:38.849Z,57.70
2022-12-26T04:54:07.581Z,56.63
2022-12-26T04:56:35.820Z,56.68
2022-12-26T04:59:03.970Z,56.67
2022-12-26T05:01:50.902Z,56.95
2022-12-26T05:04:37.336Z,56.65
2022-12-26T05:07:24.907Z,56.75
2022-12-26T05:09:54.640Z,57.11
2022-12-26T05:12:23.011Z,56.67
2022-12-26T05:14:50.920Z,56.46
2022-12-26T05:17:38.200Z,56.93
2022-12-26T05:20:24.974Z,56.44
2022-12-26T05:23:11.339Z,56.65
2022-12-26T05:26:00.567Z,56.51
2022-12-26T05:28:43.608Z,56.44
2022-12-26T05:31:12.801Z,57.13
2022-12-26T05:33:59.880Z,56.98
2022-12-26T05:36:31.551Z,56.36
2022-12-26T05:38:59.667Z,56.36
2022-12-26T05:41:27.562Z,56.64
2022-12-26T05:43:55.432Z,56.57
2022-12-26T05:46:23.352Z,56.37
2022-12-26T05:48:52.739Z,56.02
2022-12-26T05:51:20.671Z,56.11
2022-12-26T05:53:49.454Z,56.47
2022-12-26T05:56:18.642Z,56.05
2022-12-26T05:58:47.345Z,56.12
2022-12-26T06:01:17.542Z,56.33
2022-12-26T06:03:48.998Z,56.01
2022-12-26T06:06:19.466Z,56.23
2022-12-26T06:08:49.405Z,56.70
2022-12-26T06:11:17.965Z,56.62
2022-12-26T06:13:46.586Z,56.10
2022-12-26T06:16:16.898Z,56.53
2022-12-26T06:18:45.259Z,56.56
2022-12-26T06:21:15.318Z,56.41
2022-12-26T06:23:44.913Z,56.13
2022-12-26T06:26:13.143Z,56.22
2022-12-26T06:28:42.183Z,56.40
2022-12-26T06:31:12.063Z,56.42
2022-12-26T06:33:39.889Z,56.81
2022-12-26T06:36:09.775Z,56.32
2022-12-26T06:38:37.976Z,56.67
2022-12-26T06:41:08.234Z,56.79
2022-12-26T06:43:36.413Z,56.72
2022-12-26T06:46:05.989Z,56.77
2022-12-26T06:48:39.258Z,56.50
2022-12-26T06:51:08.516Z,56.11
2022-12-26T06:53:36.379Z,56.02
2022-12-26T06:56:10.489Z,55.99
2022-12-26T06:58:39.043Z,56.44
2022-12-26T07:01:07.903Z,56.27
2022-12-26T07:03:36.400Z,55.94
2022-12-26T07:06:05.683Z,56.18
2022-12-26T07:08:33.589Z,55.86
2022-12-26T07:11:01.844Z,55.81
2022-12-26T07:13:31.499Z,55.90
2022-12-26T07:16:00.609Z,55.73
2022-12-26T07:18:28.773Z,55.69
2022-12-26T07:20:56.663Z,55.70
2022-12-26T07:23:24.780Z,55.71
2022-12-26T07:25:52.573Z,55.73
2022-12-26T07:28:20.339Z,56.21
2022-12-26T07:30:50.813Z,55.65
2022-12-26T07:33:18.803Z,55.85
2022-12-26T07:35:46.619Z,55.59
2022-12-26T07:38:14.851Z,55.89
2022-12-26T07:40:42.671Z,55.60
2022-12-26T07:43:10.571Z,55.94
2022-12-26T07:45:45.107Z,55.94
2022-12-26T07:48:15.225Z,55.26
2022-12-26T07:50:47.021Z,55.55
2022-12-26T07:53:15.362Z,55.74
2022-12-26T07:55:43.237Z,55.50
2022-12-26T07:58:11.424Z,55.36
2022-12-26T08:00:39.312Z,55.23
2022-12-26T08:03:08.454Z,54.94
2022-12-26T08:05:37.911Z,55.45
2022-12-26T08:08:06.017Z,54.88
2022-12-26T08:10:33.875Z,54.78
2022-12-26T08:13:01.766Z,54.97
2022-12-26T08:15:29.681Z,55.02
2022-12-26T08:17:57.572Z,55.31
2022-12-26T08:20:25.485Z,54.76
2022-12-26T08:25:25.928Z,54.80
2022-12-26T08:27:53.750Z,54.77
2022-12-26T08:30:21.635Z,54.63
2022-12-26T08:32:49.530Z,55.07
2022-12-26T08:35:17.414Z,54.57
2022-12-26T08:37:45.271Z,54.55
2022-12-26T08:40:15.488Z,54.84
2022-12-26T08:43:11.744Z,54.49
2022-12-26T08:45:34.712Z,55.07
2022-12-26T08:48:03.093Z,54.91
2022-12-26T08:50:31.874Z,55.05
2022-12-26T08:53:03.301Z,54.86
2022-12-26T08:55:32.519Z,54.30
2022-12-26T08:58:00.527Z,54.84
2022-12-26T09:00:28.701Z,55.00
2022-12-26T09:02:56.717Z,54.64
2022-12-26T09:05:24.720Z,54.60
2022-12-26T09:07:52.673Z,54.86
2022-12-26T09:10:20.475Z,54.48
2022-12-26T09:12:49.882Z,54.88
2022-12-26T09:15:18.005Z,54.48
2022-12-26T09:17:45.973Z,54.40
2022-12-26T09:20:13.774Z,54.73
2022-12-26T09:22:54.483Z,54.66
2022-12-26T09:25:25.275Z,54.66
2022-12-26T09:27:59.080Z,54.54
2022-12-26T09:30:27.854Z,54.57
2022-12-26T09:32:55.845Z,54.30
2022-12-26T09:35:23.668Z,54.05
2022-12-26T09:37:51.443Z,54.31
2022-12-26T09:40:23.360Z,54.19
2022-12-26T09:43:10.927Z,54.02
2022-12-26T09:45:50.969Z,53.72
2022-12-26T09:48:23.042Z,54.00
2022-12-26T09:50:52.672Z,54.31
2022-12-26T09:53:26.588Z,53.84
2022-12-26T09:55:58.421Z,53.61
2022-12-26T09:58:30.246Z,54.02
2022-12-26T10:01:04.461Z,53.87
2022-12-26T10:03:39.425Z,53.58
2022-12-26T10:06:15.026Z,53.94
2022-12-26T10:09:12.673Z,53.49
2022-12-26T10:12:00.714Z,53.69
2022-12-26T10:14:40.606Z,53.26
2022-12-26T10:17:17.651Z,53.66
2022-12-26T10:19:58.045Z,53.48
2022-12-26T10:22:57.856Z,52.93
2022-12-26T10:25:33.805Z,54.24
2022-12-26T10:28:05.295Z,53.66
2022-12-26T10:30:40.841Z,53.76
2022-12-26T10:33:17.738Z,53.41
2022-12-26T10:35:47.313Z,53.53
2022-12-26T10:38:22.720Z,52.95
2022-12-26T10:40:57.525Z,53.32
2022-12-26T10:43:29.796Z,53.37
2022-12-26T10:46:17.648Z,52.67
2022-12-26T10:48:48.847Z,52.84
2022-12-26T10:51:17.449Z,52.69
2022-12-26T10:53:49.673Z,52.83
2022-12-26T10:56:18.637Z,53.04
2022-12-26T10:58:47.283Z,53.07
2022-12-26T11:01:35.753Z,51.74
2022-12-26T11:04:06.638Z,52.83
2022-12-26T11:06:39.015Z,52.22
2022-12-26T11:09:08.504Z,53.00
2022-12-26T11:11:46.796Z,52.40
2022-12-26T11:14:33.832Z,52.01
2022-12-26T11:17:06.889Z,52.40
2022-12-26T11:19:37.599Z,52.69
2022-12-26T11:22:21.814Z,51.50
2022-12-26T11:25:16.270Z,51.70
2022-12-26T11:27:47.230Z,52.51
2022-12-26T11:30:32.560Z,51.22
2022-12-26T11:33:15.275Z,51.50
2022-12-26T11:35:49.987Z,52.00
2022-12-26T11:38:37.562Z,51.99
2022-12-26T11:41:32.691Z,52.15
2022-12-26T11:44:05.555Z,51.82
2022-12-26T11:46:37.957Z,52.44
2022-12-26T11:49:11.637Z,52.38
2022-12-26T11:51:43.136Z,51.94
2022-12-26T11:54:32.816Z,50.91
2022-12-26T11:57:20.315Z,50.89
2022-12-26T11:59:49.302Z,51.79
2022-12-26T12:02:28.055Z,51.38
2022-12-26T12:05:01.687Z,51.73
2022-12-26T12:07:53.262Z,51.49
2022-12-26T12:10:59.537Z,50.93
2022-12-26T12:13:46.748Z,51.99
2022-12-26T12:16:33.728Z,52.31
2022-12-26T12:19:15.510Z,51.96
2022-12-26T12:21:46.318Z,52.06
2022-12-26T12:24:38.869Z,51.63
2022-12-26T12:27:18.178Z,51.88
2022-12-26T12:30:15.005Z,52.07
2022-12-26T12:32:57.363Z,51.75
2022-12-26T12:35:43.283Z,51.48
2022-12-26T12:38:33.671Z,51.86
2022-12-26T12:41:20.192Z,51.57
2022-12-26T12:43:57.037Z,52.12
2022-12-26T12:46:34.933Z,51.76
2022-12-26T12:49:35.817Z,51.84
2022-12-26T12:52:14.657Z,52.16
2022-12-26T12:55:02.936Z,51.37
2022-12-26T12:57:40.056Z,51.64
2022-12-26T13:00:16.292Z,51.60
2022-12-26T13:02:51.450Z,52.22
2022-12-26T13:05:27.308Z,52.21
2022-12-26T13:08:01.006Z,51.72
2022-12-26T13:10:34.382Z,51.86
2022-12-26T13:13:14.841Z,51.77
2022-12-26T13:15:46.884Z,52.45
2022-12-26T13:18:17.932Z,52.68
2022-12-26T13:20:49.822Z,52.34
2022-12-26T13:23:40.895Z,52.16
2022-12-26T13:26:14.747Z,52.24
2022-12-26T13:28:52.721Z,52.31
2022-12-26T13:31:21.925Z,52.69
2022-12-26T13:33:50.506Z,51.99
2022-12-26T13:36:44.243Z,50.94
2022-12-26T13:39:35.518Z,50.64
2022-12-26T13:42:37.215Z,51.20
2022-12-26T13:45:42.514Z,51.00
2022-12-26T13:48:47.668Z,50.22
2022-12-26T13:51:43.828Z,49.81
2022-12-26T13:54:14.286Z,51.32
2022-12-26T13:57:24.188Z,50.11
2022-12-26T14:00:16.423Z,49.56
2022-12-26T14:03:28.491Z,49.71
2022-12-26T14:06:14.500Z,50.05
2022-12-26T14:08:55.707Z,49.95
2022-12-26T14:11:47.472Z,49.83
2022-12-26T14:14:29.239Z,50.25
2022-12-26T14:17:03.871Z,50.68
2022-12-26T14:19:43.578Z,50.45
2022-12-26T14:22:23.972Z,50.13
2022-12-26T14:25:03.874Z,50.13
2022-12-26T14:27:38.824Z,50.47
2022-12-26T14:30:21.161Z,50.13
2022-12-26T14:33:04.422Z,50.03
2022-12-26T14:35:38.189Z,50.67
2022-12-26T14:38:22.358Z,50.39
2022-12-26T14:41:09.508Z,50.02
2022-12-26T14:43:37.754Z,50.70
2022-12-26T14:46:32.149Z,50.02
2022-12-26T14:49:01.626Z,50.19
2022-12-26T14:51:33.574Z,49.71
2022-12-26T14:54:22.119Z,48.15
2022-12-26T14:56:51.344Z,49.60
2022-12-26T14:59:29.344Z,48.28
2022-12-26T15:02:12.056Z,48.55
2022-12-26T15:04:57.659Z,48.09
2022-12-26T15:07:56.169Z,47.79
2022-12-26T15:11:05.576Z,48.43
2022-12-26T15:13:59.524Z,48.39
2022-12-26T15:16:40.917Z,48.47
2022-12-26T15:19:43.179Z,47.95
2022-12-26T15:22:59.465Z,47.89
2022-12-26T15:25:54.944Z,47.37
2022-12-26T15:29:01.413Z,48.20
2022-12-26T15:31:56.860Z,48.06
2022-12-26T15:35:05.030Z,48.10
2022-12-26T15:37:46.591Z,47.39
2022-12-26T15:40:17.240Z,48.82
2022-12-26T15:43:00.414Z,47.34
2022-12-26T15:45:40.244Z,48.76
2022-12-26T15:48:20.465Z,48.13
2022-12-26T15:50:57.967Z,47.33
2022-12-26T15:53:37.021Z,47.24
2022-12-26T15:56:20.951Z,47.07
2022-12-26T15:59:09.728Z,47.65
2022-12-26T16:01:40.455Z,48.59
2022-12-26T16:04:17.180Z,47.77
2022-12-26T16:07:03.778Z,47.57
2022-12-26T16:09:44.358Z,48.14
2022-12-26T16:12:27.728Z,47.43
2022-12-26T16:15:14.549Z,47.61
2022-12-26T16:17:43.230Z,48.83
2022-12-26T16:20:40.033Z,48.02
2022-12-26T16:23:13.887Z,47.82
2022-12-26T16:25:46.986Z,48.31
2022-12-26T16:28:15.074Z,48.32
2022-12-26T16:30:43.441Z,48.38
2022-12-26T16:33:14.687Z,47.85
2022-12-26T16:35:43.795Z,48.34
2022-12-26T16:38:16.499Z,47.51
2022-12-26T16:40:46.618Z,48.27
2022-12-26T16:43:27.603Z,46.93
2022-12-26T16:45:58.698Z,47.84
2022-12-26T16:48:29.096Z,48.29
2022-12-26T16:50:59.127Z,48.41
2022-12-26T16:53:44.358Z,47.67
2022-12-26T16:56:26.480Z,47.45
2022-12-26T16:59:04.028Z,47.26
2022-12-26T17:01:35.304Z,47.86
2022-12-26T17:04:06.974Z,47.35
2022-12-26T17:06:38.019Z,46.96
2022-12-26T17:09:10.516Z,46.66
2022-12-26T17:11:41.299Z,46.75
2022-12-26T17:14:18.805Z,46.02
2022-12-26T17:16:46.683Z,47.03
2022-12-26T17:19:19.622Z,46.45
2022-12-26T17:22:02.162Z,47.12
2022-12-26T17:24:31.389Z,47.44
2022-12-26T17:27:11.224Z,45.60
2022-12-26T17:29:48.724Z,45.13
2022-12-26T17:32:22.297Z,46.68
2022-12-26T17:34:50.287Z,46.78
2022-12-26T17:37:23.095Z,45.78
2022-12-26T17:39:59.019Z,45.54
2022-12-26T17:42:30.582Z,46.54
2022-12-26T17:44:59.383Z,46.50
2022-12-26T17:47:29.527Z,46.58
2022-12-26T17:49:58.171Z,46.14
2022-12-26T17:52:28.752Z,45.88
2022-12-26T17:54:59.677Z,45.45
2022-12-26T17:57:29.422Z,46.12
2022-12-26T17:59:58.191Z,46.07
2022-12-26T18:02:26.144Z,46.14
2022-12-26T18:04:54.039Z,45.94
2022-12-26T18:07:30.897Z,46.11
2022-12-26T18:10:01.735Z,46.15
2022-12-26T18:12:29.683Z,45.90
2022-12-26T18:15:01.628Z,46.10
2022-12-26T18:17:32.940Z,46.12
2022-12-26T18:20:00.883Z,46.09
2022-12-26T18:22:28.926Z,46.29
2022-12-26T18:24:57.083Z,46.27
2022-12-26T18:27:30.693Z,45.63
2022-12-26T18:29:58.770Z,46.30
2022-12-26T18:32:28.495Z,46.43
2022-12-26T18:34:56.776Z,46.16
2022-12-26T18:37:26.984Z,46.21
2022-12-26T18:39:55.263Z,46.12
2022-12-26T18:42:23.448Z,45.95
2022-12-26T18:44:52.672Z,45.66
2022-12-26T18:47:22.288Z,45.72
2022-12-26T18:49:50.343Z,46.07
2022-12-26T18:52:18.406Z,45.98
2022-12-26T18:54:46.448Z,46.03
2022-12-26T18:57:19.955Z,45.58
2022-12-26T18:59:48.420Z,46.08
2022-12-26T19:02:19.572Z,46.17
2022-12-26T19:04:48.951Z,46.01
2022-12-26T19:07:18.216Z,45.92
2022-12-26T19:09:46.795Z,46.26
2022-12-26T19:12:15.257Z,45.93
2022-12-26T19:14:44.646Z,46.20
2022-12-26T19:17:12.995Z,45.73
2022-12-26T19:19:42.232Z,45.77
2022-12-26T19:22:10.413Z,45.84
2022-12-26T19:24:38.805Z,45.70
2022-12-26T19:27:06.617Z,46.00
2022-12-26T19:29:34.604Z,45.36
2022-12-26T19:32:02.644Z,45.46
2022-12-26T19:34:30.653Z,45.23
2022-12-26T19:36:59.997Z,45.44
2022-12-26T19:39:27.931Z,45.44
2022-12-26T19:41:55.787Z,45.28
2022-12-26T19:44:23.652Z,45.36
2022-12-26T19:47:11.998Z,45.51
2022-12-26T19:49:39.428Z,45.50
2022-12-26T19:52:10.337Z,44.63
2022-12-26T19:54:38.365Z,45.64
2022-12-26T19:57:06.715Z,45.41
2022-12-26T19:59:35.053Z,45.44
2022-12-26T20:02:03.004Z,45.59
2022-12-26T20:04:31.045Z,45.32
2022-12-26T20:06:59.802Z,45.36
2022-12-26T20:09:29.131Z,45.45
2022-12-26T20:11:57.440Z,45.59
2022-12-26T20:14:26.987Z,45.47
2022-12-26T20:17:06.603Z,45.55
2022-12-26T20:19:36.433Z,45.71
2022-12-26T20:22:05.203Z,45.74
2022-12-26T20:24:34.834Z,45.57
2022-12-26T20:27:03.299Z,45.64
2022-12-26T20:29:31.455Z,45.60
2022-12-26T20:31:59.542Z,45.58
2022-12-26T20:34:27.607Z,45.87
2022-12-26T20:36:55.414Z,45.57
2022-12-26T20:39:23.724Z,45.78
2022-12-26T20:41:52.909Z,45.72
2022-12-26T20:44:20.818Z,45.77
2022-12-26T20:46:48.599Z,45.91
2022-12-26T20:49:16.545Z,45.78
2022-12-26T20:51:45.394Z,45.65
2022-12-26T20:54:15.167Z,45.02
2022-12-26T20:56:43.733Z,45.36
2022-12-26T20:59:13.012Z,45.32
2022-12-26T21:01:41.128Z,44.87
2022-12-26T21:04:10.064Z,44.95
2022-12-26T21:06:39.585Z,45.03
2022-12-26T21:09:07.796Z,45.17
2022-12-26T21:11:38.383Z,45.10
2022-12-26T21:14:08.281Z,45.00
2022-12-26T21:16:40.228Z,45.07
2022-12-26T21:19:14.785Z,45.54
2022-12-26T21:21:44.655Z,45.80
2022-12-26T21:24:14.911Z,45.38
2022-12-26T21:26:43.473Z,45.49
2022-12-26T21:29:17.148Z,45.24
2022-12-26T21:31:46.949Z,45.26
2022-12-26T21:34:17.027Z,45.52
2022-12-26T21:37:06.164Z,45.56
2022-12-26T21:39:35.618Z,45.67
2022-12-26T21:42:04.533Z,45.14
2022-12-26T21:44:32.382Z,45.05
2022-12-26T21:47:01.559Z,45.29
2022-12-26T21:49:29.584Z,45.39
2022-12-26T21:51:57.378Z,45.78
2022-12-26T21:54:48.785Z,45.61
2022-12-26T21:57:17.779Z,45.70
2022-12-26T21:59:58.757Z,45.40
2022-12-26T22:02:56.970Z,45.70
2022-12-26T22:05:26.716Z,45.62
2022-12-26T22:07:56.033Z,45.41
2022-12-26T22:10:41.167Z,45.58
2022-12-26T22:13:09.445Z,45.40
2022-12-26T22:15:59.880Z,45.08
2022-12-26T22:18:29.849Z,45.71
2022-12-26T22:21:01.674Z,45.44
2022-12-26T22:23:29.512Z,45.74
2022-12-26T22:25:58.060Z,45.73
2022-12-26T22:28:26.204Z,45.65
2022-12-26T22:30:54.070Z,45.49
2022-12-26T22:33:21.945Z,45.36
2022-12-26T22:35:51.109Z,45.56
2022-12-26T22:38:19.007Z,45.60
2022-12-26T22:40:55.982Z,45.21
2022-12-26T22:43:24.280Z,45.19
2022-12-26T22:45:52.658Z,45.43
2022-12-26T22:48:21.234Z,45.47
2022-12-26T22:50:54.023Z,45.14
2022-12-26T22:53:24.218Z,45.30
2022-12-26T22:55:53.730Z,45.17
2022-12-26T22:58:21.510Z,45.36
2022-12-26T23:00:49.356Z,45.18
2022-12-26T23:03:17.234Z,45.16
2022-12-26T23:05:45.505Z,45.50
2022-12-26T23:08:20.146Z,44.77
2022-12-26T23:10:49.072Z,45.49
2022-12-26T23:13:17.645Z,45.30
2022-12-26T23:15:54.168Z,45.22
2022-12-26T23:18:46.643Z,44.64
2022-12-26T23:21:41.309Z,44.89
2022-12-26T23:24:16.264Z,45.31
2022-12-26T23:26:50.042Z,45.01
2022-12-26T23:29:37.513Z,45.43
2022-12-26T23:32:06.326Z,45.40
2022-12-26T23:34:34.307Z,45.32
2022-12-26T23:37:02.479Z,45.49
2022-12-26T23:39:31.678Z,45.40
2022-12-26T23:41:59.513Z,45.84
2022-12-26T23:44:27.345Z,45.80
2022-12-26T23:46:55.324Z,45.67
2022-12-26T23:49:23.154Z,45.61
2022-12-26T23:51:51.112Z,45.57
2022-12-26T23:54:18.916Z,45.51
2022-12-26T23:56:48.075Z,45.55
2022-12-26T23:59:15.908Z,45.45
